createdAt,value
2018-05-02T00:00:45.091Z,92.27
2018-05-02T00:01:45.062Z,91.51
2018-05-02T00:02:45.072Z,90.61
2018-05-02T00:03:45.007Z,90.70
2018-05-02T00:04:44.975Z,91.75
2018-05-02T00:05:44.943Z,91.37
2018-05-02T00:06:44.915Z,91.84
2018-05-02T00:07:44.886Z,92.51
2018-05-02T00:08:44.853Z,92.03
2018-05-02T00:09:44.823Z,90.99
2018-05-02T00:10:44.791Z,91.65
2018-05-02T00:11:44.765Z,91.08
2018-05-02T00:12:44.726Z,90.70
2018-05-02T00:13:44.699Z,90.03
2018-05-02T00:14:44.671Z,91.84
2018-05-02T00:15:44.643Z,91.84
2018-05-02T00:16:44.619Z,91.37
2018-05-02T00:17:44.591Z,90.99
2018-05-02T00:18:44.567Z,90.99
2018-05-02T00:19:44.530Z,90.61
2018-05-02T00:20:44.499Z,90.89
2018-05-02T00:21:44.469Z,90.89
2018-05-02T00:22:44.439Z,91.17
2018-05-02T00:23:44.410Z,90.61
2018-05-02T00:24:44.380Z,90.99
2018-05-02T00:25:44.342Z,90.99
2018-05-02T00:26:44.314Z,90.89
2018-05-02T00:27:44.283Z,90.80
2018-05-02T00:28:44.258Z,91.27
2018-05-02T00:29:44.227Z,90.32
2018-05-02T00:30:44.200Z,90.42
2018-05-02T00:31:44.158Z,90.51
2018-05-02T00:32:44.135Z,89.75
2018-05-02T00:33:44.106Z,90.03
2018-05-02T00:34:44.081Z,90.13
2018-05-02T00:35:44.051Z,90.51
2018-05-02T00:36:44.026Z,89.56
2018-05-02T00:37:43.992Z,89.27
2018-05-02T00:38:43.967Z,89.65
2018-05-02T00:39:43.939Z,89.08
2018-05-02T00:40:43.903Z,88.99
2018-05-02T00:41:43.864Z,89.47
2018-05-02T00:42:43.842Z,89.37
2018-05-02T00:43:43.813Z,87.85
2018-05-02T00:44:43.784Z,89.08
2018-05-02T00:45:43.748Z,89.56
2018-05-02T00:46:43.728Z,88.70
2018-05-02T00:47:43.683Z,87.94
2018-05-02T00:48:43.652Z,87.80
2018-05-02T00:49:43.629Z,86.85
2018-05-02T00:50:43.604Z,86.90
2018-05-02T00:51:43.575Z,87.65
2018-05-02T00:52:43.550Z,86.13
2018-05-02T00:53:43.505Z,87.37
2018-05-02T00:54:43.480Z,86.94
2018-05-02T00:55:43.451Z,86.47
2018-05-02T00:56:43.428Z,87.56
2018-05-02T00:57:43.389Z,86.28
2018-05-02T00:58:43.351Z,86.28
2018-05-02T00:59:43.334Z,87.85
2018-05-02T01:00:43.291Z,87.27
2018-05-02T01:01:43.263Z,86.38
2018-05-02T01:02:43.235Z,87.75
2018-05-02T01:03:43.208Z,86.94
2018-05-02T01:04:43.177Z,85.99
2018-05-02T01:05:43.155Z,87.23
2018-05-02T01:06:43.116Z,87.23
2018-05-02T01:07:43.097Z,86.70
2018-05-02T01:08:43.063Z,86.70
2018-05-02T01:09:43.031Z,85.24
2018-05-02T01:10:43.003Z,86.09
2018-05-02T01:11:42.968Z,86.18
2018-05-02T01:12:42.943Z,85.99
2018-05-02T01:13:42.905Z,86.66
2018-05-02T01:14:42.872Z,85.99
2018-05-02T01:15:42.840Z,87.04
2018-05-02T01:16:42.820Z,86.66
2018-05-02T01:17:42.785Z,85.33
2018-05-02T01:18:42.751Z,86.47
2018-05-02T01:19:42.726Z,86.66
2018-05-02T01:20:42.700Z,85.80
2018-05-02T01:21:42.664Z,86.18
2018-05-02T01:22:42.650Z,86.76
2018-05-02T01:23:42.611Z,86.66
2018-05-02T01:24:42.580Z,85.71
2018-05-02T01:25:42.550Z,85.99
2018-05-02T01:26:42.530Z,86.57
2018-05-02T01:27:42.494Z,86.66
2018-05-02T01:28:42.460Z,87.23
2018-05-02T01:29:42.425Z,87.23
2018-05-02T01:30:42.387Z,86.66
2018-05-02T01:31:42.370Z,86.47
2018-05-02T01:32:42.332Z,85.90
2018-05-02T01:33:42.302Z,84.76
2018-05-02T01:34:42.284Z,85.42
2018-05-02T01:35:42.246Z,86.38
2018-05-02T01:36:42.212Z,85.99
2018-05-02T01:37:42.186Z,84.95
2018-05-02T01:38:42.155Z,84.95
2018-05-02T01:39:42.119Z,85.24
2018-05-02T01:40:42.091Z,84.85
2018-05-02T01:41:42.063Z,83.33
2018-05-02T01:42:42.035Z,85.14
2018-05-02T01:43:42.009Z,84.95
2018-05-02T01:44:41.964Z,84.85
2018-05-02T01:45:41.943Z,85.14
2018-05-02T01:46:41.921Z,84.95
2018-05-02T01:47:41.882Z,84.76
2018-05-02T01:48:41.861Z,85.42
2018-05-02T01:49:41.822Z,84.66
2018-05-02T01:50:41.796Z,84.95
2018-05-02T01:51:41.761Z,84.95
2018-05-02T01:52:41.732Z,85.42
2018-05-02T01:53:41.699Z,85.52
2018-05-02T01:54:41.666Z,84.56
2018-05-02T01:55:41.645Z,84.95
2018-05-02T01:56:41.607Z,85.52
2018-05-02T01:57:41.571Z,85.33
2018-05-02T01:58:41.545Z,83.71
2018-05-02T01:59:41.519Z,85.42
2018-05-02T02:00:41.490Z,85.14
2018-05-02T02:01:41.467Z,86.28
2018-05-02T02:02:41.425Z,85.33
2018-05-02T02:03:41.404Z,86.66
2018-05-02T02:04:41.363Z,86.28
2018-05-02T02:05:41.334Z,86.85
2018-05-02T02:06:41.314Z,86.09
2018-05-02T02:07:41.284Z,87.04
2018-05-02T02:08:41.249Z,86.47
2018-05-02T02:09:41.211Z,85.80
2018-05-02T02:10:41.181Z,86.38
2018-05-02T02:11:41.148Z,86.76
2018-05-02T02:12:41.121Z,84.85
2018-05-02T02:13:41.091Z,85.24
2018-05-02T02:14:41.058Z,85.24
2018-05-02T02:15:41.033Z,85.61
2018-05-02T02:16:41.008Z,85.99
2018-05-02T02:17:40.978Z,85.61
2018-05-02T02:18:40.942Z,85.42
2018-05-02T02:19:40.914Z,85.14
2018-05-02T02:20:40.889Z,84.76
2018-05-02T02:21:40.860Z,84.95
2018-05-02T02:22:40.818Z,84.76
2018-05-02T02:23:40.794Z,84.85
2018-05-02T02:24:40.758Z,85.52
2018-05-02T02:25:40.725Z,84.66
2018-05-02T02:26:40.698Z,84.38
2018-05-02T02:27:40.663Z,84.76
2018-05-02T02:28:40.646Z,83.90
2018-05-02T02:29:40.606Z,82.76
2018-05-02T02:30:40.577Z,84.19
2018-05-02T02:31:40.538Z,84.56
2018-05-02T02:32:40.519Z,85.10
2018-05-02T02:33:40.485Z,84.47
2018-05-02T02:34:40.463Z,84.62
2018-05-02T02:35:40.427Z,84.43
2018-05-02T02:36:40.406Z,82.53
2018-05-02T02:37:40.359Z,83.95
2018-05-02T02:38:40.341Z,82.91
2018-05-02T02:39:40.297Z,83.48
2018-05-02T02:40:41.933Z,83.00
2018-05-02T02:41:40.243Z,81.86
2018-05-02T02:42:40.214Z,81.10
2018-05-02T02:43:40.190Z,81.10
2018-05-02T02:44:40.168Z,81.20
2018-05-02T02:45:40.124Z,80.24
2018-05-02T02:46:40.088Z,78.63
2018-05-02T02:47:40.063Z,78.72
2018-05-02T02:48:40.028Z,78.25
2018-05-02T02:49:39.999Z,77.97
2018-05-02T02:50:39.971Z,78.30
2018-05-02T02:51:39.930Z,76.78
2018-05-02T02:52:39.910Z,77.26
2018-05-02T02:53:39.881Z,77.73
2018-05-02T02:54:39.851Z,76.78
2018-05-02T02:55:39.815Z,76.31
2018-05-02T02:56:39.784Z,75.74
2018-05-02T02:57:39.759Z,75.74
2018-05-02T02:58:39.732Z,76.50
2018-05-02T02:59:39.694Z,75.26
2018-05-02T03:00:39.668Z,75.64
2018-05-02T03:01:39.634Z,76.03
2018-05-02T03:02:39.637Z,76.59
2018-05-02T03:03:39.572Z,75.17
2018-05-02T03:04:39.540Z,76.69
2018-05-02T03:05:39.535Z,76.40
2018-05-02T03:06:39.483Z,76.12
2018-05-02T03:07:39.447Z,75.84
2018-05-02T03:08:39.447Z,75.17
2018-05-02T03:09:39.386Z,75.45
2018-05-02T03:10:39.352Z,75.55
2018-05-02T03:11:39.321Z,75.45
2018-05-02T03:12:39.300Z,77.17
2018-05-02T03:13:39.290Z,77.55
2018-05-02T03:14:39.237Z,77.26
2018-05-02T03:15:39.203Z,78.11
2018-05-02T03:16:39.174Z,77.26
2018-05-02T03:17:39.139Z,78.30
2018-05-02T03:18:39.115Z,76.88
2018-05-02T03:19:39.077Z,78.11
2018-05-02T03:20:39.050Z,77.26
2018-05-02T03:21:39.010Z,77.55
2018-05-02T03:22:38.990Z,76.69
2018-05-02T03:23:38.958Z,75.84
2018-05-02T03:24:38.924Z,75.17
2018-05-02T03:25:38.888Z,76.21
2018-05-02T03:26:38.866Z,75.45
2018-05-02T03:27:38.829Z,75.55
2018-05-02T03:28:38.794Z,75.64
2018-05-02T03:29:38.770Z,75.55
2018-05-02T03:30:38.741Z,75.64
2018-05-02T03:31:38.711Z,74.88
2018-05-02T03:32:38.682Z,74.88
2018-05-02T03:33:38.647Z,74.31
2018-05-02T03:34:38.624Z,73.74
2018-05-02T03:35:38.584Z,73.84
2018-05-02T03:36:38.562Z,73.93
2018-05-02T03:37:38.526Z,73.08
2018-05-02T03:38:38.492Z,73.08
2018-05-02T03:39:38.461Z,71.37
2018-05-02T03:40:38.426Z,70.76
2018-05-02T03:41:38.405Z,69.62
2018-05-02T03:42:38.372Z,69.91
2018-05-02T03:43:38.336Z,68.58
2018-05-02T03:44:38.317Z,67.72
2018-05-02T03:45:38.272Z,68.10
2018-05-02T03:46:38.281Z,67.53
2018-05-02T03:47:38.218Z,66.87
2018-05-02T03:48:38.176Z,66.39
2018-05-02T03:49:38.179Z,65.82
2018-05-02T03:50:38.127Z,66.01
2018-05-02T03:51:38.198Z,66.20
2018-05-02T03:52:38.053Z,65.63
2018-05-02T03:53:38.035Z,64.97
2018-05-02T03:54:38.005Z,66.11
2018-05-02T03:55:37.973Z,66.20
2018-05-02T03:56:38.015Z,66.39
2018-05-02T03:57:37.907Z,66.30
2018-05-02T03:58:37.873Z,66.20
2018-05-02T03:59:37.865Z,66.11
2018-05-02T04:00:37.822Z,67.06
2018-05-02T04:01:37.774Z,68.58
2018-05-02T04:02:37.753Z,70.38
2018-05-02T04:03:37.718Z,71.14
2018-05-02T04:04:37.691Z,71.66
2018-05-02T04:05:37.659Z,70.99
2018-05-02T04:06:37.624Z,71.46
2018-05-02T04:07:37.589Z,73.18
2018-05-02T04:08:37.632Z,73.93
2018-05-02T04:09:37.538Z,75.07
2018-05-02T04:10:37.519Z,73.74
2018-05-02T04:11:37.476Z,74.41
2018-05-02T04:12:37.447Z,75.26
2018-05-02T04:13:37.435Z,75.07
2018-05-02T04:14:37.378Z,74.79
2018-05-02T04:15:37.354Z,73.74
2018-05-02T04:16:37.326Z,75.07
2018-05-02T04:17:37.294Z,74.98
2018-05-02T04:18:37.314Z,76.78
2018-05-02T04:19:37.221Z,75.26
2018-05-02T04:20:37.188Z,75.45
2018-05-02T04:21:37.158Z,76.50
2018-05-02T04:22:37.125Z,77.36
2018-05-02T04:23:37.099Z,76.31
2018-05-02T04:24:37.063Z,76.03
2018-05-02T04:25:37.043Z,76.97
2018-05-02T04:26:37.009Z,77.55
2018-05-02T04:27:36.973Z,78.11
2018-05-02T04:28:36.949Z,78.78
2018-05-02T04:29:36.920Z,78.11
2018-05-02T04:30:36.885Z,78.11
2018-05-02T04:31:36.857Z,75.07
2018-05-02T04:32:36.822Z,78.11
2018-05-02T04:33:36.787Z,78.59
2018-05-02T04:34:36.765Z,78.21
2018-05-02T04:35:36.727Z,78.02
2018-05-02T04:36:36.692Z,78.11
2018-05-02T04:37:36.659Z,77.07
2018-05-02T04:38:36.634Z,79.44
2018-05-02T04:39:36.602Z,80.21
2018-05-02T04:40:36.575Z,79.39
2018-05-02T04:41:36.542Z,79.30
2018-05-02T04:42:36.518Z,79.86
2018-05-02T04:43:36.484Z,78.88
2018-05-02T04:44:36.451Z,79.73
2018-05-02T04:45:36.425Z,79.96
2018-05-02T04:46:36.385Z,79.77
2018-05-02T04:47:36.358Z,79.49
2018-05-02T04:48:36.326Z,79.58
2018-05-02T04:49:36.297Z,81.86
2018-05-02T04:50:36.264Z,79.20
2018-05-02T04:51:36.235Z,81.01
2018-05-02T04:52:36.214Z,80.34
2018-05-02T04:53:36.177Z,79.01
2018-05-02T04:54:36.151Z,79.68
2018-05-02T04:55:36.113Z,80.24
2018-05-02T04:56:36.090Z,79.86
2018-05-02T04:57:36.051Z,81.58
2018-05-02T04:58:36.014Z,79.39
2018-05-02T04:59:36.059Z,80.91
2018-05-02T05:00:35.956Z,81.48
2018-05-02T05:01:35.928Z,80.34
2018-05-02T05:02:35.907Z,81.48
2018-05-02T05:03:35.859Z,80.24
2018-05-02T05:04:35.835Z,79.77
2018-05-02T05:05:35.826Z,81.29
2018-05-02T05:06:35.823Z,81.77
2018-05-02T05:07:35.742Z,80.82
2018-05-02T05:08:35.715Z,80.34
2018-05-02T05:09:35.686Z,81.48
2018-05-02T05:10:35.649Z,82.05
2018-05-02T05:11:35.623Z,82.15
2018-05-02T05:12:35.588Z,81.48
2018-05-02T05:13:35.552Z,81.10
2018-05-02T05:14:35.526Z,82.15
2018-05-02T05:15:35.490Z,81.62
2018-05-02T05:16:35.470Z,81.24
2018-05-02T05:17:35.433Z,81.48
2018-05-02T05:18:35.407Z,81.96
2018-05-02T05:19:35.369Z,83.58
2018-05-02T05:20:35.339Z,82.34
2018-05-02T05:21:35.310Z,82.38
2018-05-02T05:22:35.288Z,82.00
2018-05-02T05:23:35.254Z,81.52
2018-05-02T05:24:35.230Z,84.19
2018-05-02T05:25:35.190Z,83.14
2018-05-02T05:26:35.160Z,82.86
2018-05-02T05:27:35.127Z,83.04
2018-05-02T05:28:35.105Z,83.42
2018-05-02T05:29:35.075Z,84.09
2018-05-02T05:30:35.055Z,84.56
2018-05-02T05:31:35.013Z,85.14
2018-05-02T05:32:34.976Z,84.19
2018-05-02T05:33:34.942Z,84.38
2018-05-02T05:34:34.917Z,84.28
2018-05-02T05:35:34.885Z,83.52
2018-05-02T05:36:34.851Z,84.56
2018-05-02T05:37:34.831Z,84.19
2018-05-02T05:38:34.798Z,84.38
2018-05-02T05:39:34.765Z,84.28
2018-05-02T05:40:34.736Z,84.95
2018-05-02T05:41:34.706Z,83.71
2018-05-02T05:42:34.684Z,85.24
2018-05-02T05:43:34.662Z,85.37
2018-05-02T05:44:34.612Z,85.37
2018-05-02T05:45:34.579Z,86.51
2018-05-02T05:46:34.555Z,86.13
2018-05-02T05:47:34.516Z,85.47
2018-05-02T05:48:34.501Z,85.18
2018-05-02T05:49:34.473Z,85.56
2018-05-02T05:50:34.439Z,86.61
2018-05-02T05:51:34.407Z,86.04
2018-05-02T05:52:34.428Z,86.61
2018-05-02T05:53:34.336Z,87.18
2018-05-02T05:54:34.333Z,85.75
2018-05-02T05:55:34.286Z,87.46
2018-05-02T05:56:34.253Z,87.46
2018-05-02T05:57:34.221Z,87.75
2018-05-02T05:58:34.189Z,86.99
2018-05-02T05:59:34.161Z,88.04
2018-05-02T06:00:34.128Z,88.23
2018-05-02T06:01:34.102Z,87.94
2018-05-02T06:02:34.070Z,88.51
2018-05-02T06:03:34.051Z,87.85
2018-05-02T06:04:34.016Z,88.04
2018-05-02T06:05:33.987Z,86.51
2018-05-02T06:06:33.956Z,88.51
2018-05-02T06:07:33.923Z,88.23
2018-05-02T06:08:33.901Z,87.46
2018-05-02T06:09:33.861Z,88.08
2018-05-02T06:10:33.824Z,87.89
2018-05-02T06:11:33.802Z,88.93
2018-05-02T06:12:33.764Z,89.03
2018-05-02T06:13:33.742Z,88.56
2018-05-02T06:14:33.710Z,88.56
2018-05-02T06:15:33.708Z,88.46
2018-05-02T06:16:33.646Z,89.13
2018-05-02T06:17:33.626Z,89.70
2018-05-02T06:18:33.593Z,89.13
2018-05-02T06:19:33.560Z,88.84
2018-05-02T06:20:33.531Z,89.70
2018-05-02T06:21:33.504Z,87.32
2018-05-02T06:22:33.474Z,88.93
2018-05-02T06:23:33.443Z,88.46
2018-05-02T06:24:33.420Z,88.18
2018-05-02T06:25:33.382Z,88.18
2018-05-02T06:26:33.347Z,89.41
2018-05-02T06:27:33.315Z,88.84
2018-05-02T06:28:33.300Z,89.51
2018-05-02T06:29:33.268Z,88.37
2018-05-02T06:30:33.235Z,89.13
2018-05-02T06:31:33.277Z,88.75
2018-05-02T06:32:33.170Z,89.32
2018-05-02T06:33:33.148Z,87.41
2018-05-02T06:34:33.114Z,88.46
2018-05-02T06:35:33.086Z,89.61
2018-05-02T06:36:33.051Z,89.36
2018-05-02T06:37:33.111Z,87.93
2018-05-02T06:38:33.000Z,89.55
2018-05-02T06:39:32.972Z,89.94
2018-05-02T06:40:32.935Z,89.94
2018-05-02T06:41:32.911Z,90.70
2018-05-02T06:42:32.869Z,90.22
2018-05-02T06:43:32.906Z,88.51
2018-05-02T06:44:32.810Z,88.51
2018-05-02T06:45:32.794Z,89.36
2018-05-02T06:46:32.756Z,89.65
2018-05-02T06:47:32.732Z,89.75
2018-05-02T06:48:32.698Z,89.65
2018-05-02T06:49:32.675Z,90.79
2018-05-02T06:50:32.645Z,89.84
2018-05-02T06:51:32.609Z,90.70
2018-05-02T06:52:32.586Z,89.84
2018-05-02T06:53:32.548Z,90.84
2018-05-02T06:54:32.525Z,90.93
2018-05-02T06:55:32.488Z,91.03
2018-05-02T06:56:32.461Z,91.31
2018-05-02T06:57:32.435Z,90.84
2018-05-02T06:58:32.410Z,91.31
2018-05-02T06:59:32.372Z,90.64
2018-05-02T07:00:32.349Z,91.31
2018-05-02T07:01:32.315Z,92.46
2018-05-02T07:02:32.467Z,91.22
2018-05-02T07:03:32.257Z,91.03
2018-05-02T07:04:32.236Z,91.22
2018-05-02T07:05:32.201Z,91.41
2018-05-02T07:06:32.167Z,91.69
2018-05-02T07:07:32.134Z,91.98
2018-05-02T07:08:32.112Z,91.22
2018-05-02T07:09:32.084Z,91.03
2018-05-02T07:10:32.054Z,91.36
2018-05-02T07:11:32.020Z,92.98
2018-05-02T07:12:31.999Z,92.50
2018-05-02T07:13:32.038Z,92.69
2018-05-02T07:14:31.940Z,92.03
2018-05-02T07:15:31.912Z,92.79
2018-05-02T07:16:31.878Z,92.32
2018-05-02T07:17:31.848Z,93.36
2018-05-02T07:18:31.820Z,92.32
2018-05-02T07:19:31.797Z,93.17
2018-05-02T07:20:31.763Z,92.88
2018-05-02T07:21:31.737Z,92.98
2018-05-02T07:22:31.718Z,93.46
2018-05-02T07:23:31.671Z,92.69
2018-05-02T07:24:31.641Z,93.46
2018-05-02T07:25:31.619Z,93.46
2018-05-02T07:26:31.581Z,93.36
2018-05-02T07:27:31.557Z,92.50
2018-05-02T07:28:31.538Z,93.31
2018-05-02T07:29:31.503Z,93.51
2018-05-02T07:30:31.472Z,92.17
2018-05-02T07:31:31.448Z,92.46
2018-05-02T07:32:31.588Z,92.07
2018-05-02T07:33:31.390Z,92.65
2018-05-02T07:34:31.359Z,92.74
2018-05-02T07:35:31.343Z,93.41
2018-05-02T07:36:31.301Z,93.31
2018-05-02T07:37:31.265Z,92.93
2018-05-02T07:38:31.232Z,92.55
2018-05-02T07:39:31.212Z,92.93
2018-05-02T07:40:31.182Z,92.65
2018-05-02T07:41:31.146Z,92.83
2018-05-02T07:42:31.130Z,92.36
2018-05-02T07:43:31.099Z,91.88
2018-05-02T07:44:31.067Z,91.78
2018-05-02T07:45:31.053Z,91.21
2018-05-02T07:46:31.009Z,91.50
2018-05-02T07:47:30.986Z,91.31
2018-05-02T07:48:30.973Z,91.98
2018-05-02T07:49:30.930Z,91.78
2018-05-02T07:50:30.898Z,91.74
2018-05-02T07:51:30.865Z,91.74
2018-05-02T07:52:30.839Z,90.02
2018-05-02T07:53:30.800Z,90.59
2018-05-02T07:54:30.781Z,90.31
2018-05-02T07:55:30.743Z,90.21
2018-05-02T07:56:30.742Z,90.59
2018-05-02T07:57:30.698Z,90.78
2018-05-02T07:58:30.664Z,90.40
2018-05-02T07:59:30.644Z,89.68
2018-05-02T08:00:30.613Z,88.20
2018-05-02T08:01:30.576Z,86.87
2018-05-02T08:02:30.559Z,87.77
2018-05-02T08:03:30.515Z,87.29
2018-05-02T08:04:30.522Z,87.29
2018-05-02T08:05:30.463Z,86.43
2018-05-02T08:06:30.434Z,85.96
2018-05-02T08:07:30.404Z,84.91
2018-05-02T08:08:30.377Z,84.62
2018-05-02T08:09:30.367Z,85.10
2018-05-02T08:10:30.329Z,83.86
2018-05-02T08:11:30.316Z,84.62
2018-05-02T08:12:30.266Z,85.00
2018-05-02T08:13:30.235Z,85.00
2018-05-02T08:14:30.217Z,84.72
2018-05-02T08:15:30.181Z,85.67
2018-05-02T08:16:30.156Z,85.48
2018-05-02T08:17:30.127Z,84.14
2018-05-02T08:18:30.092Z,84.19
2018-05-02T08:19:30.066Z,83.90
2018-05-02T08:20:30.033Z,83.51
2018-05-02T08:21:30.012Z,82.14
2018-05-02T08:22:29.977Z,82.84
2018-05-02T08:23:29.959Z,82.23
2018-05-02T08:24:29.925Z,82.61
2018-05-02T08:25:29.905Z,81.70
2018-05-02T08:26:29.878Z,80.93
2018-05-02T08:27:29.840Z,82.28
2018-05-02T08:28:29.815Z,80.84
2018-05-02T08:29:29.789Z,81.32
2018-05-02T08:30:29.759Z,80.46
2018-05-02T08:31:29.739Z,79.79
2018-05-02T08:32:29.708Z,78.26
2018-05-02T08:33:29.677Z,76.25
2018-05-02T08:34:29.648Z,75.96
2018-05-02T08:35:29.616Z,75.49
2018-05-02T08:36:29.587Z,74.63
2018-05-02T08:37:29.561Z,74.05
2018-05-02T08:38:29.537Z,72.24
2018-05-02T08:39:29.501Z,73.48
2018-05-02T08:40:29.479Z,72.62
2018-05-02T08:41:29.451Z,72.94
2018-05-02T08:42:29.425Z,72.28
2018-05-02T08:43:29.406Z,72.66
2018-05-02T08:44:29.375Z,71.22
2018-05-02T08:45:29.343Z,70.17
2018-05-02T08:46:29.314Z,70.36
2018-05-02T08:47:29.295Z,68.45
2018-05-02T08:48:29.263Z,66.92
2018-05-02T08:49:29.233Z,67.69
2018-05-02T08:50:29.207Z,66.44
2018-05-02T08:51:29.175Z,66.35
2018-05-02T08:52:29.149Z,68.35
2018-05-02T08:53:29.123Z,66.92
2018-05-02T08:54:29.095Z,65.77
2018-05-02T08:55:29.062Z,65.30
2018-05-02T08:56:29.029Z,66.16
2018-05-02T08:57:29.050Z,66.73
2018-05-02T08:58:28.989Z,67.49
2018-05-02T08:59:28.985Z,68.45
2018-05-02T09:00:28.927Z,68.26
2018-05-02T09:01:28.903Z,68.93
2018-05-02T09:02:28.880Z,68.26
2018-05-02T09:03:28.845Z,68.96
2018-05-02T09:04:28.828Z,68.29
2018-05-02T09:05:28.792Z,67.82
2018-05-02T09:06:28.763Z,68.29
2018-05-02T09:07:28.737Z,68.10
2018-05-02T09:08:28.704Z,67.08
2018-05-02T09:09:28.681Z,61.60
2018-05-02T09:10:28.647Z,57.01
2018-05-02T09:11:28.639Z,56.15
2018-05-02T09:12:28.595Z,56.53
2018-05-02T09:13:28.572Z,56.84
2018-05-02T09:14:28.555Z,57.32
2018-05-02T09:15:28.547Z,57.61
2018-05-02T09:16:28.500Z,57.90
2018-05-02T09:17:28.473Z,56.49
2018-05-02T09:18:28.436Z,56.39
2018-05-02T09:19:28.408Z,56.77
2018-05-02T09:20:28.381Z,55.91
2018-05-02T09:21:28.348Z,53.52
2018-05-02T09:22:28.325Z,53.02
2018-05-02T09:23:28.301Z,52.92
2018-05-02T09:24:28.271Z,52.54
2018-05-02T09:25:28.243Z,53.20
2018-05-02T09:26:28.222Z,53.69
2018-05-02T09:27:28.245Z,53.33
2018-05-02T09:28:28.167Z,54.00
2018-05-02T09:29:28.146Z,53.23
2018-05-02T09:30:28.120Z,54.07
2018-05-02T09:31:28.095Z,54.74
2018-05-02T09:32:28.058Z,55.31
2018-05-02T09:33:28.031Z,55.88
2018-05-02T09:34:28.018Z,56.65
2018-05-02T09:35:27.986Z,56.65
2018-05-02T09:36:27.955Z,56.94
2018-05-02T09:37:27.924Z,56.87
2018-05-02T09:38:27.899Z,56.46
2018-05-02T09:39:27.870Z,57.42
2018-05-02T09:40:27.842Z,58.31
2018-05-02T09:41:27.820Z,57.54
2018-05-02T09:42:27.787Z,57.16
2018-05-02T09:43:27.773Z,56.68
2018-05-02T09:44:27.738Z,56.32
2018-05-02T09:45:27.725Z,56.71
2018-05-02T09:46:27.693Z,56.32
2018-05-02T09:47:27.666Z,55.91
2018-05-02T09:48:27.638Z,55.34
2018-05-02T09:49:27.613Z,55.53
2018-05-02T09:50:27.581Z,55.15
2018-05-02T09:51:27.556Z,56.49
2018-05-02T09:52:27.531Z,56.97
2018-05-02T09:53:27.502Z,56.97
2018-05-02T09:54:27.485Z,56.49
2018-05-02T09:55:27.444Z,58.12
2018-05-02T09:56:27.426Z,60.54
2018-05-02T09:57:27.394Z,61.79
2018-05-02T09:58:27.376Z,61.31
2018-05-02T09:59:27.351Z,62.65
2018-05-02T10:00:27.322Z,63.99
2018-05-02T10:01:27.304Z,63.13
2018-05-02T10:02:27.276Z,60.83
2018-05-02T10:03:27.246Z,60.54
2018-05-02T10:04:27.258Z,60.44
2018-05-02T10:05:27.193Z,62.07
2018-05-02T10:06:27.162Z,61.88
2018-05-02T10:07:27.138Z,60.35
2018-05-02T10:08:27.121Z,60.73
2018-05-02T10:09:27.094Z,59.48
2018-05-02T10:10:27.069Z,58.72
2018-05-02T10:11:27.040Z,57.70
2018-05-02T10:12:27.049Z,56.93
2018-05-02T10:13:26.991Z,54.79
2018-05-02T10:14:26.958Z,54.32
2018-05-02T10:15:26.934Z,53.26
2018-05-02T10:16:26.909Z,52.40
2018-05-02T10:17:26.881Z,53.07
2018-05-02T10:18:26.866Z,53.07
2018-05-02T10:19:26.829Z,52.81
2018-05-02T10:20:26.799Z,53.00
2018-05-02T10:21:26.781Z,53.38
2018-05-02T10:22:26.758Z,52.52
2018-05-02T10:23:26.722Z,51.87
2018-05-02T10:24:26.696Z,52.93
2018-05-02T10:25:26.679Z,52.83
2018-05-02T10:26:26.652Z,53.96
2018-05-02T10:27:26.624Z,53.60
2018-05-02T10:28:26.604Z,53.50
2018-05-02T10:29:26.574Z,52.55
2018-05-02T10:30:26.551Z,52.45
2018-05-02T10:31:26.522Z,52.64
2018-05-02T10:32:26.501Z,51.65
2018-05-02T10:33:26.466Z,50.00
2018-05-02T10:34:26.442Z,51.54
2018-05-02T10:35:26.418Z,52.42
2018-05-02T10:36:26.386Z,52.23
2018-05-02T10:37:26.365Z,52.59
2018-05-02T10:38:26.341Z,52.97
2018-05-02T10:39:26.311Z,52.97
2018-05-02T10:40:26.296Z,53.96
2018-05-02T10:41:26.269Z,53.48
2018-05-02T10:42:26.240Z,55.01
2018-05-02T10:43:26.217Z,55.01
2018-05-02T10:44:26.189Z,54.85
2018-05-02T10:45:26.174Z,54.37
2018-05-02T10:46:26.144Z,52.64
2018-05-02T10:47:26.115Z,53.77
2018-05-02T10:48:26.096Z,53.70
2018-05-02T10:49:26.063Z,54.44
2018-05-02T10:50:26.113Z,54.63
2018-05-02T10:51:26.007Z,54.46
2018-05-02T10:52:25.986Z,54.17
2018-05-02T10:53:25.960Z,52.95
2018-05-02T10:54:25.935Z,54.21
2018-05-02T10:55:25.910Z,53.89
2018-05-02T10:56:25.886Z,54.37
2018-05-02T10:57:25.868Z,54.44
2018-05-02T10:58:25.845Z,54.53
2018-05-02T10:59:25.812Z,55.58
2018-05-02T11:00:25.790Z,55.42
2018-05-02T11:01:25.766Z,54.46
2018-05-02T11:02:25.743Z,55.13
2018-05-02T11:03:25.712Z,54.85
2018-05-02T11:04:25.707Z,54.75
2018-05-02T11:05:25.660Z,54.46
2018-05-02T11:06:25.632Z,54.88
2018-05-02T11:07:25.607Z,52.93
2018-05-02T11:08:25.629Z,52.52
2018-05-02T11:09:25.564Z,52.42
2018-05-02T11:10:25.542Z,53.50
2018-05-02T11:11:25.510Z,53.03
2018-05-02T11:12:25.492Z,53.12
2018-05-02T11:13:25.461Z,52.95
2018-05-02T11:14:25.438Z,51.71
2018-05-02T11:15:25.416Z,51.61
2018-05-02T11:16:25.382Z,52.38
2018-05-02T11:17:25.363Z,52.67
2018-05-02T11:18:25.337Z,53.05
2018-05-02T11:19:25.336Z,53.03
2018-05-02T11:20:25.288Z,53.34
2018-05-02T11:21:25.265Z,52.48
2018-05-02T11:22:25.248Z,52.45
2018-05-02T11:23:25.215Z,52.74
2018-05-02T11:24:25.203Z,53.08
2018-05-02T11:25:25.173Z,51.76
2018-05-02T11:26:25.153Z,50.25
2018-05-02T11:27:25.123Z,49.53
2018-05-02T11:28:25.182Z,48.02
2018-05-02T11:29:25.093Z,47.15
2018-05-02T11:30:25.048Z,46.36
2018-05-02T11:31:25.017Z,46.95
2018-05-02T11:32:25.007Z,46.31
2018-05-02T11:33:24.985Z,46.19
2018-05-02T11:34:24.949Z,45.56
2018-05-02T11:35:24.923Z,45.15
2018-05-02T11:36:24.904Z,45.27
2018-05-02T11:37:24.884Z,44.74
2018-05-02T11:38:24.910Z,44.67
2018-05-02T11:39:24.839Z,45.03
2018-05-02T11:40:24.818Z,45.92
2018-05-02T11:41:24.801Z,44.96
2018-05-02T11:42:24.777Z,45.27
2018-05-02T11:43:24.759Z,45.22
2018-05-02T11:44:24.741Z,44.79
2018-05-02T11:45:24.705Z,44.40
2018-05-02T11:46:24.681Z,43.65
2018-05-02T11:47:24.662Z,43.23
2018-05-02T11:48:24.644Z,45.07
2018-05-02T11:49:24.620Z,46.04
2018-05-02T11:50:24.602Z,44.66
2018-05-02T11:51:24.573Z,42.75
2018-05-02T11:52:24.548Z,42.73
2018-05-02T11:53:24.536Z,42.56
2018-05-02T11:54:24.523Z,42.73
2018-05-02T11:55:24.492Z,42.27
2018-05-02T11:56:24.478Z,40.82
2018-05-02T11:57:24.457Z,42.05
2018-05-02T11:58:24.433Z,41.86
2018-05-02T11:59:24.414Z,42.36
2018-05-02T12:00:24.390Z,41.52
2018-05-02T12:01:24.399Z,41.05
2018-05-02T12:02:24.357Z,40.65
2018-05-02T12:03:24.330Z,40.75
2018-05-02T12:04:24.307Z,40.86
2018-05-02T12:05:24.283Z,39.80
2018-05-02T12:06:24.266Z,39.97
2018-05-02T12:07:24.244Z,39.59
2018-05-02T12:08:24.262Z,39.76
2018-05-02T12:09:24.220Z,40.59
2018-05-02T12:10:24.197Z,39.94
2018-05-02T12:11:24.193Z,40.76
2018-05-02T12:12:24.157Z,40.95
2018-05-02T12:13:24.129Z,40.99
2018-05-02T12:14:24.121Z,39.76
2018-05-02T12:15:24.101Z,39.59
2018-05-02T12:16:24.081Z,39.70
2018-05-02T12:17:24.064Z,38.06
2018-05-02T12:18:24.041Z,37.60
2018-05-02T12:19:24.031Z,37.35
2018-05-02T12:20:24.008Z,39.31
2018-05-02T12:21:24.001Z,39.43
2018-05-02T12:22:23.973Z,39.34
2018-05-02T12:23:23.954Z,38.79
2018-05-02T12:24:23.935Z,38.31
2018-05-02T12:25:23.917Z,38.43
2018-05-02T12:26:23.898Z,37.87
2018-05-02T12:27:23.920Z,38.45
2018-05-02T12:28:23.913Z,38.28
2018-05-02T12:29:23.845Z,39.92
2018-05-02T12:30:23.996Z,39.80
2018-05-02T12:31:23.800Z,39.97
2018-05-02T12:32:23.790Z,39.70
2018-05-02T12:33:23.833Z,39.06
2018-05-02T12:34:23.760Z,39.45
2018-05-02T12:35:23.763Z,37.90
2018-05-02T12:36:23.722Z,38.18
2018-05-02T12:37:23.705Z,38.18
2018-05-02T12:38:23.686Z,37.71
2018-05-02T12:39:23.727Z,38.35
2018-05-02T12:40:23.714Z,39.22
2018-05-02T12:41:23.635Z,39.47
2018-05-02T12:42:23.608Z,40.61
2018-05-02T12:43:23.594Z,41.11
2018-05-02T12:44:23.579Z,40.86
2018-05-02T12:45:23.562Z,40.96
2018-05-02T12:46:23.544Z,39.51
2018-05-02T12:47:23.526Z,39.90
2018-05-02T12:48:23.508Z,38.66
2018-05-02T12:49:23.496Z,39.62
2018-05-02T12:50:23.486Z,39.34
2018-05-02T12:51:23.463Z,39.53
2018-05-02T12:52:23.459Z,38.39